sensor_id;sensor_type;location;lat;lon;timestamp;P1;durP1;ratioP1;P2;durP2;ratioP2
35667;SDS011;22158;59.280;17.806;2023-03-25T05:02:34;2.15;;;1.80;;
35667;SDS011;22158;59.280;17.806;2023-03-25T05:04:59;5.90;;;2.83;;
35667;SDS011;22158;59.280;17.806;2023-03-25T05:07:29;3.05;;;2.10;;
35667;SDS011;22158;59.280;17.806;2023-03-25T05:09:54;4.03;;;2.33;;
35667;SDS011;22158;59.280;17.806;2023-03-25T05:12:21;2.80;;;2.50;;
35667;SDS011;22158;59.280;17.806;2023-03-25T05:14:47;5.13;;;2.35;;
35667;SDS011;22158;59.280;17.806;2023-03-25T05:17:12;2.97;;;2.00;;
35667;SDS011;22158;59.280;17.806;2023-03-25T05:19:38;3.92;;;1.98;;
35667;SDS011;22158;59.280;17.806;2023-03-25T05:22:07;3.33;;;2.03;;
35667;SDS011;22158;59.280;17.806;2023-03-25T05:24:33;4.80;;;2.53;;
35667;SDS011;22158;59.280;17.806;2023-03-25T05:26:59;6.38;;;2.45;;
35667;SDS011;22158;59.280;17.806;2023-03-25T05:29:26;4.05;;;2.42;;
35667;SDS011;22158;59.280;17.806;2023-03-25T05:31:52;2.95;;;2.15;;
35667;SDS011;22158;59.280;17.806;2023-03-25T05:34:17;4.18;;;2.47;;
35667;SDS011;22158;59.280;17.806;2023-03-25T05:36:44;3.78;;;2.40;;
35667;SDS011;22158;59.280;17.806;2023-03-25T05:39:10;4.00;;;2.25;;
35667;SDS011;22158;59.280;17.806;2023-03-25T05:41:36;2.83;;;1.95;;
35667;SDS011;22158;59.280;17.806;2023-03-25T05:44:06;3.35;;;2.17;;
35667;SDS011;22158;59.280;17.806;2023-03-25T05:46:32;3.95;;;2.67;;
35667;SDS011;22158;59.280;17.806;2023-03-25T05:48:58;3.33;;;2.10;;
35667;SDS011;22158;59.280;17.806;2023-03-25T05:51:27;4.47;;;2.30;;
35667;SDS011;22158;59.280;17.806;2023-03-25T05:53:57;7.53;;;2.63;;
35667;SDS011;22158;59.280;17.806;2023-03-25T05:56:23;5.85;;;2.83;;
35667;SDS011;22158;59.280;17.806;2023-03-25T05:58:50;4.40;;;2.40;;
35667;SDS011;22158;59.280;17.806;2023-03-25T06:01:17;4.95;;;2.58;;
35667;SDS011;22158;59.280;17.806;2023-03-25T06:03:45;7.72;;;3.42;;
35667;SDS011;22158;59.280;17.806;2023-03-25T06:06:11;3.53;;;2.67;;
35667;SDS011;22158;59.280;17.806;2023-03-25T06:08:47;3.40;;;2.47;;
35667;SDS011;22158;59.280;17.806;2023-03-25T06:11:14;4.10;;;2.60;;
35667;SDS011;22158;59.280;17.806;2023-03-25T06:13:41;5.65;;;3.67;;
35667;SDS011;22158;59.280;17.806;2023-03-25T06:16:18;5.40;;;2.80;;
35667;SDS011;22158;59.280;17.806;2023-03-25T06:18:46;4.15;;;2.55;;
35667;SDS011;22158;59.280;17.806;2023-03-25T06:21:18;4.82;;;2.47;;
35667;SDS011;22158;59.280;17.806;2023-03-25T06:23:45;6.47;;;2.42;;
35667;SDS011;22158;59.280;17.806;2023-03-25T06:26:13;4.63;;;2.63;;
35667;SDS011;22158;59.280;17.806;2023-03-25T06:28:43;8.50;;;2.55;;
35667;SDS011;22158;59.280;17.806;2023-03-25T06:31:17;4.50;;;2.05;;
35667;SDS011;22158;59.280;17.806;2023-03-25T06:33:47;4.65;;;2.25;;
35667;SDS011;22158;59.280;17.806;2023-03-25T06:36:14;2.97;;;2.13;;
35667;SDS011;22158;59.280;17.806;2023-03-25T06:38:42;5.00;;;2.38;;
35667;SDS011;22158;59.280;17.806;2023-03-25T06:41:12;7.25;;;3.22;;
35667;SDS011;22158;59.280;17.806;2023-03-25T06:43:38;4.97;;;2.90;;
35667;SDS011;22158;59.280;17.806;2023-03-25T06:46:05;5.55;;;2.42;;
35667;SDS011;22158;59.280;17.806;2023-03-25T06:48:31;5.88;;;2.70;;
35667;SDS011;22158;59.280;17.806;2023-03-25T06:50:57;8.35;;;2.58;;
35667;SDS011;22158;59.280;17.806;2023-03-25T06:53:22;4.00;;;2.70;;
35667;SDS011;22158;59.280;17.806;2023-03-25T06:55:48;5.20;;;1.77;;
35667;SDS011;22158;59.280;17.806;2023-03-25T06:58:14;3.92;;;2.25;;
35667;SDS011;22158;59.280;17.806;2023-03-25T07:00:39;4.65;;;2.40;;
35667;SDS011;22158;59.280;17.806;2023-03-25T07:03:05;3.88;;;2.25;;
35667;SDS011;22158;59.280;17.806;2023-03-25T07:05:31;3.20;;;2.15;;
35667;SDS011;22158;59.280;17.806;2023-03-25T07:07:57;3.30;;;2.35;;
35667;SDS011;22158;59.280;17.806;2023-03-25T07:10:22;4.75;;;2.30;;
35667;SDS011;22158;59.280;17.806;2023-03-25T07:12:48;5.75;;;2.17;;
35667;SDS011;22158;59.280;17.806;2023-03-25T07:15:14;4.15;;;2.47;;
35667;SDS011;22158;59.280;17.806;2023-03-25T07:17:39;4.47;;;2.88;;
35667;SDS011;22158;59.280;17.806;2023-03-25T07:20:07;4.28;;;2.83;;
35667;SDS011;22158;59.280;17.806;2023-03-25T07:22:33;3.65;;;1.90;;
35667;SDS011;22158;59.280;17.806;2023-03-25T07:24:58;4.35;;;2.70;;
35667;SDS011;22158;59.280;17.806;2023-03-25T07:27:24;3.03;;;2.55;;
35667;SDS011;22158;59.280;17.806;2023-03-25T07:29:50;2.75;;;2.35;;
35667;SDS011;22158;59.280;17.806;2023-03-25T07:32:16;4.20;;;2.47;;
35667;SDS011;22158;59.280;17.806;2023-03-25T07:34:42;5.75;;;2.25;;
35667;SDS011;22158;59.280;17.806;2023-03-25T07:37:08;5.70;;;2.55;;
35667;SDS011;22158;59.280;17.806;2023-03-25T07:39:34;3.90;;;2.60;;
35667;SDS011;22158;59.280;17.806;2023-03-25T07:42:00;5.03;;;2.88;;
35667;SDS011;22158;59.280;17.806;2023-03-25T07:44:25;7.78;;;2.83;;
35667;SDS011;22158;59.280;17.806;2023-03-25T07:46:51;5.53;;;2.92;;
35667;SDS011;22158;59.280;17.806;2023-03-25T07:49:16;2.97;;;2.20;;
35667;SDS011;22158;59.280;17.806;2023-03-25T07:51:43;5.82;;;2.30;;
35667;SDS011;22158;59.280;17.806;2023-03-25T07:54:09;3.45;;;2.10;;
35667;SDS011;22158;59.280;17.806;2023-03-25T07:56:35;3.72;;;2.35;;
35667;SDS011;22158;59.280;17.806;2023-03-25T07:59:01;6.30;;;2.35;;
35667;SDS011;22158;59.280;17.806;2023-03-25T08:01:27;4.03;;;2.30;;
35667;SDS011;22158;59.280;17.806;2023-03-25T08:03:53;3.83;;;2.10;;
35667;SDS011;22158;59.280;17.806;2023-03-25T08:06:18;8.18;;;2.53;;
35667;SDS011;22158;59.280;17.806;2023-03-25T08:08:44;5.20;;;2.50;;
35667;SDS011;22158;59.280;17.806;2023-03-25T08:11:10;5.38;;;1.98;;
35667;SDS011;22158;59.280;17.806;2023-03-25T08:13:35;3.33;;;2.42;;
35667;SDS011;22158;59.280;17.806;2023-03-25T08:16:01;3.47;;;2.25;;
35667;SDS011;22158;59.280;17.806;2023-03-25T08:18:27;3.72;;;2.38;;
35667;SDS011;22158;59.280;17.806;2023-03-25T08:20:53;4.03;;;2.67;;
35667;SDS011;22158;59.280;17.806;2023-03-25T08:23:19;8.38;;;2.78;;
35667;SDS011;22158;59.280;17.806;2023-03-25T08:25:47;10.55;;;2.80;;
35667;SDS011;22158;59.280;17.806;2023-03-25T08:28:14;7.55;;;3.33;;
35667;SDS011;22158;59.280;17.806;2023-03-25T08:30:41;7.93;;;3.38;;
35667;SDS011;22158;59.280;17.806;2023-03-25T08:33:08;4.57;;;2.90;;
35667;SDS011;22158;59.280;17.806;2023-03-25T08:35:35;6.40;;;3.53;;
35667;SDS011;22158;59.280;17.806;2023-03-25T08:38:01;4.63;;;3.08;;
35667;SDS011;22158;59.280;17.806;2023-03-25T08:40:29;7.22;;;2.78;;
35667;SDS011;22158;59.280;17.806;2023-03-25T08:42:55;7.50;;;3.47;;
35667;SDS011;22158;59.280;17.806;2023-03-25T08:45:21;7.47;;;2.78;;
35667;SDS011;22158;59.280;17.806;2023-03-25T08:47:47;4.47;;;3.00;;
35667;SDS011;22158;59.280;17.806;2023-03-25T08:50:12;4.57;;;2.92;;
35667;SDS011;22158;59.280;17.806;2023-03-25T08:52:38;10.02;;;3.50;;
35667;SDS011;22158;59.280;17.806;2023-03-25T08:55:04;5.80;;;3.17;;
35667;SDS011;22158;59.280;17.806;2023-03-25T08:57:33;5.15;;;3.03;;
35667;SDS011;22158;59.280;17.806;2023-03-25T09:00:00;5.03;;;2.92;;
35667;SDS011;22158;59.280;17.806;2023-03-25T09:02:26;5.10;;;2.42;;
35667;SDS011;22158;59.280;17.806;2023-03-25T09:04:52;6.68;;;3.38;;
35667;SDS011;22158;59.280;17.806;2023-03-25T09:07:18;4.22;;;2.83;;
35667;SDS011;22158;59.280;17.806;2023-03-25T09:09:44;4.15;;;2.53;;
35667;SDS011;22158;59.280;17.806;2023-03-25T09:12:11;6.00;;;3.10;;
35667;SDS011;22158;59.280;17.806;2023-03-25T09:14:37;5.95;;;3.03;;
35667;SDS011;22158;59.280;17.806;2023-03-25T09:17:02;6.28;;;2.90;;
35667;SDS011;22158;59.280;17.806;2023-03-25T09:19:30;4.10;;;2.67;;
35667;SDS011;22158;59.280;17.806;2023-03-25T09:21:57;4.80;;;2.60;;
35667;SDS011;22158;59.280;17.806;2023-03-25T09:24:23;4.18;;;2.45;;
35667;SDS011;22158;59.280;17.806;2023-03-25T09:26:49;3.60;;;2.65;;
35667;SDS011;22158;59.280;17.806;2023-03-25T09:29:14;2.28;;;2.00;;
35667;SDS011;22158;59.280;17.806;2023-03-25T09:31:40;4.68;;;2.60;;
35667;SDS011;22158;59.280;17.806;2023-03-25T09:34:06;3.58;;;2.47;;
35667;SDS011;22158;59.280;17.806;2023-03-25T09:36:32;5.97;;;3.00;;
35667;SDS011;22158;59.280;17.806;2023-03-25T09:38:57;3.17;;;2.50;;
35667;SDS011;22158;59.280;17.806;2023-03-25T09:41:32;3.10;;;1.77;;
35667;SDS011;22158;59.280;17.806;2023-03-25T09:44:26;2.88;;;1.77;;
35667;SDS011;22158;59.280;17.806;2023-03-25T09:46:57;3.35;;;2.10;;
35667;SDS011;22158;59.280;17.806;2023-03-25T09:49:26;4.68;;;2.67;;
35667;SDS011;22158;59.280;17.806;2023-03-25T09:52:14;3.33;;;1.88;;
35667;SDS011;22158;59.280;17.806;2023-03-25T09:54:45;3.65;;;1.70;;
35667;SDS011;22158;59.280;17.806;2023-03-25T09:57:23;3.63;;;2.15;;
35667;SDS011;22158;59.280;17.806;2023-03-25T09:59:54;3.83;;;2.30;;
35667;SDS011;22158;59.280;17.806;2023-03-25T10:24:51;4.35;;;1.50;;
35667;SDS011;22158;59.280;17.806;2023-03-25T10:27:21;6.03;;;2.03;;
35667;SDS011;22158;59.280;17.806;2023-03-25T10:32:42;3.53;;;1.88;;
35667;SDS011;22158;59.280;17.806;2023-03-25T10:35:17;2.67;;;1.55;;
35667;SDS011;22158;59.280;17.806;2023-03-25T10:37:50;2.15;;;1.70;;
35667;SDS011;22158;59.280;17.806;2023-03-25T10:40:21;4.00;;;1.85;;
35667;SDS011;22158;59.280;17.806;2023-03-25T10:42:56;2.88;;;1.73;;
35667;SDS011;22158;59.280;17.806;2023-03-25T10:45:43;4.97;;;1.98;;
35667;SDS011;22158;59.280;17.806;2023-03-25T10:48:12;2.55;;;1.77;;
35667;SDS011;22158;59.280;17.806;2023-03-25T10:50:39;2.53;;;1.95;;
35667;SDS011;22158;59.280;17.806;2023-03-25T10:53:09;4.95;;;1.60;;
35667;SDS011;22158;59.280;17.806;2023-03-25T10:55:40;4.65;;;1.70;;
35667;SDS011;22158;59.280;17.806;2023-03-25T10:58:05;1.45;;;1.05;;
35667;SDS011;22158;59.280;17.806;2023-03-25T11:00:31;1.50;;;1.30;;
35667;SDS011;22158;59.280;17.806;2023-03-25T11:02:57;3.08;;;1.50;;
35667;SDS011;22158;59.280;17.806;2023-03-25T11:05:23;1.90;;;1.30;;
35667;SDS011;22158;59.280;17.806;2023-03-25T11:07:52;4.05;;;1.38;;
35667;SDS011;22158;59.280;17.806;2023-03-25T11:10:22;1.65;;;1.50;;
35667;SDS011;22158;59.280;17.806;2023-03-25T11:12:50;3.30;;;2.10;;
35667;SDS011;22158;59.280;17.806;2023-03-25T11:15:19;4.00;;;1.50;;
35667;SDS011;22158;59.280;17.806;2023-03-25T11:17:47;2.90;;;1.70;;
35667;SDS011;22158;59.280;17.806;2023-03-25T11:20:28;3.58;;;1.90;;
35667;SDS011;22158;59.280;17.806;2023-03-25T11:23:04;2.95;;;1.70;;
35667;SDS011;22158;59.280;17.806;2023-03-25T11:25:37;2.72;;;1.77;;
35667;SDS011;22158;59.280;17.806;2023-03-25T11:28:31;3.28;;;1.52;;
35667;SDS011;22158;59.280;17.806;2023-03-25T11:31:15;2.78;;;1.95;;
35667;SDS011;22158;59.280;17.806;2023-03-25T11:33:44;6.60;;;2.28;;
35667;SDS011;22158;59.280;17.806;2023-03-25T11:36:30;3.55;;;1.38;;
35667;SDS011;22158;59.280;17.806;2023-03-25T11:39:00;2.53;;;1.63;;
35667;SDS011;22158;59.280;17.806;2023-03-25T11:41:33;2.55;;;1.85;;
35667;SDS011;22158;59.280;17.806;2023-03-25T11:44:01;3.10;;;1.80;;
35667;SDS011;22158;59.280;17.806;2023-03-25T11:46:29;1.98;;;1.60;;
35667;SDS011;22158;59.280;17.806;2023-03-25T11:48:55;2.75;;;1.48;;
35667;SDS011;22158;59.280;17.806;2023-03-25T11:51:24;1.75;;;1.30;;
35667;SDS011;22158;59.280;17.806;2023-03-25T11:53:57;2.13;;;1.33;;
35667;SDS011;22158;59.280;17.806;2023-03-25T11:56:30;8.75;;;2.40;;
35667;SDS011;22158;59.280;17.806;2023-03-25T11:58:58;2.47;;;1.63;;
35667;SDS011;22158;59.280;17.806;2023-03-25T12:01:35;2.08;;;1.40;;
35667;SDS011;22158;59.280;17.806;2023-03-25T12:04:06;2.53;;;1.83;;
35667;SDS011;22158;59.280;17.806;2023-03-25T12:06:37;2.20;;;1.60;;
35667;SDS011;22158;59.280;17.806;2023-03-25T12:09:31;2.28;;;1.70;;
35667;SDS011;22158;59.280;17.806;2023-03-25T12:12:03;4.88;;;1.70;;
35667;SDS011;22158;59.280;17.806;2023-03-25T12:17:33;3.35;;;1.75;;
35667;SDS011;22158;59.280;17.806;2023-03-25T12:23:28;4.50;;;1.80;;
35667;SDS011;22158;59.280;17.806;2023-03-25T12:39:40;2.28;;;1.70;;
35667;SDS011;22158;59.280;17.806;2023-03-25T12:42:29;3.40;;;1.73;;
35667;SDS011;22158;59.280;17.806;2023-03-25T12:47:54;2.83;;;2.05;;
35667;SDS011;22158;59.280;17.806;2023-03-25T12:50:36;2.90;;;1.95;;
35667;SDS011;22158;59.280;17.806;2023-03-25T12:58:35;2.75;;;2.25;;
35667;SDS011;22158;59.280;17.806;2023-03-25T13:01:10;2.83;;;1.90;;
35667;SDS011;22158;59.280;17.806;2023-03-25T13:03:44;3.95;;;2.00;;
35667;SDS011;22158;59.280;17.806;2023-03-25T13:09:29;5.90;;;2.70;;
35667;SDS011;22158;59.280;17.806;2023-03-25T13:12:08;2.95;;;2.47;;
35667;SDS011;22158;59.280;17.806;2023-03-25T13:15:06;3.40;;;2.95;;
35667;SDS011;22158;59.280;17.806;2023-03-25T13:20:20;2.97;;;2.60;;
35667;SDS011;22158;59.280;17.806;2023-03-25T13:22:50;4.57;;;2.70;;
35667;SDS011;22158;59.280;17.806;2023-03-25T13:25:20;2.47;;;2.00;;
35667;SDS011;22158;59.280;17.806;2023-03-25T13:27:50;4.75;;;2.40;;
35667;SDS011;22158;59.280;17.806;2023-03-25T13:30:22;5.20;;;2.67;;
35667;SDS011;22158;59.280;17.806;2023-03-25T13:33:06;3.10;;;2.22;;
35667;SDS011;22158;59.280;17.806;2023-03-25T13:38:14;2.25;;;1.70;;
35667;SDS011;22158;59.280;17.806;2023-03-25T13:43:51;3.15;;;1.85;;
35667;SDS011;22158;59.280;17.806;2023-03-25T13:46:26;3.42;;;1.95;;
35667;SDS011;22158;59.280;17.806;2023-03-25T13:49:05;2.22;;;1.67;;
35667;SDS011;22158;59.280;17.806;2023-03-25T13:51:34;2.90;;;2.10;;
35667;SDS011;22158;59.280;17.806;2023-03-25T13:54:10;3.80;;;1.73;;
35667;SDS011;22158;59.280;17.806;2023-03-25T14:02:00;2.58;;;2.00;;
35667;SDS011;22158;59.280;17.806;2023-03-25T14:07:36;2.40;;;2.20;;
35667;SDS011;22158;59.280;17.806;2023-03-25T14:10:35;2.42;;;2.10;;
35667;SDS011;22158;59.280;17.806;2023-03-25T14:13:18;3.10;;;2.25;;
35667;SDS011;22158;59.280;17.806;2023-03-25T14:15:52;4.03;;;2.72;;
35667;SDS011;22158;59.280;17.806;2023-03-25T14:18:43;3.38;;;2.25;;
35667;SDS011;22158;59.280;17.806;2023-03-25T14:24:05;4.53;;;2.38;;
35667;SDS011;22158;59.280;17.806;2023-03-25T14:26:40;4.75;;;2.50;;
35667;SDS011;22158;59.280;17.806;2023-03-25T14:34:39;5.88;;;3.55;;
35667;SDS011;22158;59.280;17.806;2023-03-25T14:42:00;3.47;;;2.67;;
35667;SDS011;22158;59.280;17.806;2023-03-25T14:44:29;4.88;;;2.80;;
35667;SDS011;22158;59.280;17.806;2023-03-25T14:52:35;6.43;;;3.25;;
35667;SDS011;22158;59.280;17.806;2023-03-25T14:55:06;5.47;;;3.25;;
35667;SDS011;22158;59.280;17.806;2023-03-25T14:57:44;4.97;;;3.22;;
35667;SDS011;22158;59.280;17.806;2023-03-25T15:00:31;6.50;;;3.38;;
35667;SDS011;22158;59.280;17.806;2023-03-25T15:03:10;6.60;;;3.28;;
35667;SDS011;22158;59.280;17.806;2023-03-25T15:05:38;4.63;;;3.10;;
35667;SDS011;22158;59.280;17.806;2023-03-25T15:10:50;4.65;;;2.97;;
35667;SDS011;22158;59.280;17.806;2023-03-25T15:18:56;4.22;;;3.00;;
35667;SDS011;22158;59.280;17.806;2023-03-25T15:21:23;3.67;;;2.85;;
35667;SDS011;22158;59.280;17.806;2023-03-25T15:23:50;4.05;;;2.88;;
35667;SDS011;22158;59.280;17.806;2023-03-25T15:26:27;4.38;;;2.83;;
35667;SDS011;22158;59.280;17.806;2023-03-25T15:31:30;7.75;;;3.63;;
35667;SDS011;22158;59.280;17.806;2023-03-25T15:42:05;4.18;;;2.92;;
35667;SDS011;22158;59.280;17.806;2023-03-25T15:44:40;5.10;;;3.28;;
35667;SDS011;22158;59.280;17.806;2023-03-25T15:50:38;4.75;;;3.63;;
35667;SDS011;22158;59.280;17.806;2023-03-25T15:55:54;7.60;;;3.63;;
35667;SDS011;22158;59.280;17.806;2023-03-25T15:58:27;5.35;;;3.28;;
35667;SDS011;22158;59.280;17.806;2023-03-25T16:01:18;6.38;;;3.92;;
35667;SDS011;22158;59.280;17.806;2023-03-25T16:03:57;4.60;;;3.15;;
35667;SDS011;22158;59.280;17.806;2023-03-25T16:06:26;4.82;;;3.20;;
35667;SDS011;22158;59.280;17.806;2023-03-25T16:08:54;4.88;;;3.33;;
35667;SDS011;22158;59.280;17.806;2023-03-25T16:13:59;5.85;;;3.38;;
35667;SDS011;22158;59.280;17.806;2023-03-25T16:16:28;5.80;;;3.67;;
35667;SDS011;22158;59.280;17.806;2023-03-25T16:18:58;5.30;;;2.83;;
35667;SDS011;22158;59.280;17.806;2023-03-25T16:21:26;3.75;;;3.10;;
35667;SDS011;22158;59.280;17.806;2023-03-25T16:23:53;7.00;;;3.70;;
35667;SDS011;22158;59.280;17.806;2023-03-25T16:26:35;7.63;;;3.15;;
35667;SDS011;22158;59.280;17.806;2023-03-25T16:29:07;3.78;;;3.10;;
35667;SDS011;22158;59.280;17.806;2023-03-25T16:31:49;4.85;;;2.92;;
35667;SDS011;22158;59.280;17.806;2023-03-25T16:34:16;4.72;;;2.67;;
35667;SDS011;22158;59.280;17.806;2023-03-25T16:36:43;4.40;;;2.70;;
35667;SDS011;22158;59.280;17.806;2023-03-25T16:39:12;5.55;;;3.10;;
35667;SDS011;22158;59.280;17.806;2023-03-25T16:41:41;4.32;;;2.90;;
35667;SDS011;22158;59.280;17.806;2023-03-25T16:44:14;4.15;;;2.83;;
35667;SDS011;22158;59.280;17.806;2023-03-25T16:46:44;4.20;;;3.13;;
35667;SDS011;22158;59.280;17.806;2023-03-25T16:49:11;4.13;;;2.65;;
35667;SDS011;22158;59.280;17.806;2023-03-25T16:51:59;4.15;;;3.08;;
35667;SDS011;22158;59.280;17.806;2023-03-25T16:54:42;6.50;;;2.95;;
35667;SDS011;22158;59.280;17.806;2023-03-25T16:57:15;4.88;;;2.72;;
35667;SDS011;22158;59.280;17.806;2023-03-25T16:59:44;4.50;;;2.92;;
35667;SDS011;22158;59.280;17.806;2023-03-25T17:02:30;5.78;;;2.75;;
35667;SDS011;22158;59.280;17.806;2023-03-25T17:07:43;5.40;;;2.60;;
35667;SDS011;22158;59.280;17.806;2023-03-25T17:10:30;4.75;;;2.85;;
35667;SDS011;22158;59.280;17.806;2023-03-25T17:12:58;2.70;;;2.20;;
35667;SDS011;22158;59.280;17.806;2023-03-25T17:15:31;4.05;;;2.75;;
35667;SDS011;22158;59.280;17.806;2023-03-25T17:17:58;5.60;;;3.45;;
35667;SDS011;22158;59.280;17.806;2023-03-25T17:20:41;4.43;;;2.67;;
35667;SDS011;22158;59.280;17.806;2023-03-25T17:26:05;4.80;;;2.67;;
35667;SDS011;22158;59.280;17.806;2023-03-25T17:28:36;5.47;;;2.53;;
35667;SDS011;22158;59.280;17.806;2023-03-25T17:31:18;6.07;;;3.13;;
35667;SDS011;22158;59.280;17.806;2023-03-25T17:33:59;4.75;;;3.13;;
35667;SDS011;22158;59.280;17.806;2023-03-25T17:36:33;3.08;;;2.15;;
35667;SDS011;22158;59.280;17.806;2023-03-25T17:39:01;3.22;;;2.63;;
35667;SDS011;22158;59.280;17.806;2023-03-25T17:41:33;2.92;;;2.22;;
35667;SDS011;22158;59.280;17.806;2023-03-25T17:44:02;3.92;;;2.50;;
35667;SDS011;22158;59.280;17.806;2023-03-25T17:46:29;4.55;;;2.42;;
35667;SDS011;22158;59.280;17.806;2023-03-25T17:48:55;3.15;;;2.05;;
35667;SDS011;22158;59.280;17.806;2023-03-25T17:51:22;4.00;;;2.13;;
35667;SDS011;22158;59.280;17.806;2023-03-25T17:53:50;5.13;;;2.97;;
35667;SDS011;22158;59.280;17.806;2023-03-25T17:56:17;5.03;;;2.28;;
35667;SDS011;22158;59.280;17.806;2023-03-25T17:58:49;2.90;;;1.80;;
35667;SDS011;22158;59.280;17.806;2023-03-25T18:01:17;4.10;;;2.47;;
35667;SDS011;22158;59.280;17.806;2023-03-25T18:03:43;4.78;;;2.05;;
35667;SDS011;22158;59.280;17.806;2023-03-25T18:06:10;2.97;;;1.80;;
35667;SDS011;22158;59.280;17.806;2023-03-25T18:08:36;6.20;;;2.10;;
35667;SDS011;22158;59.280;17.806;2023-03-25T18:11:02;3.50;;;1.88;;
35667;SDS011;22158;59.280;17.806;2023-03-25T18:13:27;2.83;;;1.83;;
35667;SDS011;22158;59.280;17.806;2023-03-25T18:15:53;2.25;;;1.60;;
35667;SDS011;22158;59.280;17.806;2023-03-25T18:18:21;4.18;;;2.00;;
35667;SDS011;22158;59.280;17.806;2023-03-25T18:23:17;2.60;;;1.50;;
35667;SDS011;22158;59.280;17.806;2023-03-25T18:25:43;3.55;;;1.60;;
35667;SDS011;22158;59.280;17.806;2023-03-25T18:28:09;2.10;;;1.27;;
35667;SDS011;22158;59.280;17.806;2023-03-25T18:30:44;4.82;;;1.88;;
35667;SDS011;22158;59.280;17.806;2023-03-25T18:33:10;5.60;;;1.77;;
35667;SDS011;22158;59.280;17.806;2023-03-25T18:35:36;4.70;;;2.00;;
35667;SDS011;22158;59.280;17.806;2023-03-25T18:38:02;3.47;;;1.70;;
35667;SDS011;22158;59.280;17.806;2023-03-25T18:40:34;2.47;;;1.63;;
35667;SDS011;22158;59.280;17.806;2023-03-25T18:43:00;4.65;;;1.67;;
35667;SDS011;22158;59.280;17.806;2023-03-25T18:45:28;5.50;;;1.67;;
35667;SDS011;22158;59.280;17.806;2023-03-25T18:47:53;2.53;;;1.55;;
35667;SDS011;22158;59.280;17.806;2023-03-25T18:50:27;2.30;;;1.60;;
35667;SDS011;22158;59.280;17.806;2023-03-25T18:52:56;3.53;;;1.60;;
35667;SDS011;22158;59.280;17.806;2023-03-25T18:55:23;2.72;;;1.58;;
35667;SDS011;22158;59.280;17.806;2023-03-25T18:57:51;2.80;;;1.55;;
35667;SDS011;22158;59.280;17.806;2023-03-25T19:02:47;2.10;;;1.40;;
35667;SDS011;22158;59.280;17.806;2023-03-25T19:05:12;4.10;;;1.70;;
35667;SDS011;22158;59.280;17.806;2023-03-25T19:07:38;2.08;;;1.35;;
35667;SDS011;22158;59.280;17.806;2023-03-25T19:10:04;4.68;;;2.13;;
35667;SDS011;22158;59.280;17.806;2023-03-25T19:12:30;3.70;;;1.48;;
35667;SDS011;22158;59.280;17.806;2023-03-25T19:14:56;1.65;;;1.17;;
35667;SDS011;22158;59.280;17.806;2023-03-25T19:17:21;3.05;;;1.42;;
35667;SDS011;22158;59.280;17.806;2023-03-25T19:19:47;3.75;;;1.80;;
35667;SDS011;22158;59.280;17.806;2023-03-25T19:22:13;2.78;;;1.98;;
35667;SDS011;22158;59.280;17.806;2023-03-25T19:24:40;3.28;;;1.38;;
35667;SDS011;22158;59.280;17.806;2023-03-25T19:27:06;2.20;;;1.52;;
35667;SDS011;22158;59.280;17.806;2023-03-25T19:29:32;2.72;;;1.58;;
35667;SDS011;22158;59.280;17.806;2023-03-25T19:31:57;3.45;;;1.95;;
35667;SDS011;22158;59.280;17.806;2023-03-25T19:34:23;2.67;;;1.38;;
35667;SDS011;22158;59.280;17.806;2023-03-25T19:36:51;2.42;;;1.30;;
35667;SDS011;22158;59.280;17.806;2023-03-25T19:39:17;2.28;;;1.58;;
35667;SDS011;22158;59.280;17.806;2023-03-25T19:41:46;1.98;;;1.52;;
35667;SDS011;22158;59.280;17.806;2023-03-25T19:44:13;3.10;;;2.50;;
35667;SDS011;22158;59.280;17.806;2023-03-25T19:46:39;2.60;;;1.35;;
35667;SDS011;22158;59.280;17.806;2023-03-25T19:49:05;2.72;;;1.83;;
35667;SDS011;22158;59.280;17.806;2023-03-25T19:51:30;3.47;;;2.10;;
35667;SDS011;22158;59.280;17.806;2023-03-25T19:53:56;2.50;;;1.58;;
35667;SDS011;22158;59.280;17.806;2023-03-25T19:56:22;4.28;;;1.60;;
35667;SDS011;22158;59.280;17.806;2023-03-25T19:58:48;2.50;;;1.73;;
35667;SDS011;22158;59.280;17.806;2023-03-25T20:01:13;2.10;;;1.48;;
35667;SDS011;22158;59.280;17.806;2023-03-25T20:03:39;6.50;;;1.80;;
35667;SDS011;22158;59.280;17.806;2023-03-25T20:06:05;4.95;;;1.70;;
35667;SDS011;22158;59.280;17.806;2023-03-25T20:08:31;2.47;;;1.65;;
35667;SDS011;22158;59.280;17.806;2023-03-25T20:10:57;1.83;;;1.40;;
35667;SDS011;22158;59.280;17.806;2023-03-25T20:13:23;2.20;;;1.63;;
35667;SDS011;22158;59.280;17.806;2023-03-25T20:15:49;7.47;;;1.63;;
35667;SDS011;22158;59.280;17.806;2023-03-25T20:18:16;6.32;;;1.60;;
35667;SDS011;22158;59.280;17.806;2023-03-25T20:20:42;1.45;;;1.13;;
35667;SDS011;22158;59.280;17.806;2023-03-25T20:23:07;2.83;;;1.60;;
35667;SDS011;22158;59.280;17.806;2023-03-25T20:25:33;3.20;;;1.52;;
35667;SDS011;22158;59.280;17.806;2023-03-25T20:27:59;2.78;;;1.30;;
35667;SDS011;22158;59.280;17.806;2023-03-25T20:30:24;2.63;;;1.33;;
35667;SDS011;22158;59.280;17.806;2023-03-25T20:32:50;3.95;;;1.83;;
35667;SDS011;22158;59.280;17.806;2023-03-25T20:35:16;1.60;;;1.20;;
35667;SDS011;22158;59.280;17.806;2023-03-25T20:37:43;3.58;;;1.75;;
35667;SDS011;22158;59.280;17.806;2023-03-25T20:40:11;6.50;;;1.40;;
35667;SDS011;22158;59.280;17.806;2023-03-25T20:42:40;1.50;;;1.10;;
35667;SDS011;22158;59.280;17.806;2023-03-25T20:45:06;2.70;;;1.15;;
35667;SDS011;22158;59.280;17.806;2023-03-25T20:47:33;2.15;;;1.70;;
35667;SDS011;22158;59.280;17.806;2023-03-25T20:49:59;2.55;;;1.20;;
35667;SDS011;22158;59.280;17.806;2023-03-25T20:52:25;2.50;;;1.35;;
35667;SDS011;22158;59.280;17.806;2023-03-25T20:54:52;3.67;;;1.08;;
35667;SDS011;22158;59.280;17.806;2023-03-25T20:57:18;3.95;;;1.25;;
35667;SDS011;22158;59.280;17.806;2023-03-25T20:59:44;3.88;;;1.63;;
35667;SDS011;22158;59.280;17.806;2023-03-25T21:02:09;4.63;;;1.70;;
35667;SDS011;22158;59.280;17.806;2023-03-25T21:04:36;4.35;;;1.63;;
35667;SDS011;22158;59.280;17.806;2023-03-25T21:07:02;2.05;;;1.30;;
35667;SDS011;22158;59.280;17.806;2023-03-25T21:09:28;3.80;;;1.60;;
35667;SDS011;22158;59.280;17.806;2023-03-25T21:11:53;4.28;;;1.40;;
35667;SDS011;22158;59.280;17.806;2023-03-25T21:14:19;2.38;;;1.58;;
35667;SDS011;22158;59.280;17.806;2023-03-25T21:16:45;5.95;;;1.35;;
35667;SDS011;22158;59.280;17.806;2023-03-25T21:19:11;4.07;;;1.40;;
35667;SDS011;22158;59.280;17.806;2023-03-25T21:21:37;2.97;;;1.60;;
35667;SDS011;22158;59.280;17.806;2023-03-25T21:24:03;2.75;;;1.50;;
35667;SDS011;22158;59.280;17.806;2023-03-25T21:26:32;3.05;;;2.00;;
35667;SDS011;22158;59.280;17.806;2023-03-25T21:28:58;2.28;;;1.48;;
35667;SDS011;22158;59.280;17.806;2023-03-25T21:31:25;6.75;;;1.88;;
35667;SDS011;22158;59.280;17.806;2023-03-25T21:33:53;1.85;;;1.55;;
35667;SDS011;22158;59.280;17.806;2023-03-25T21:36:25;5.78;;;1.77;;
35667;SDS011;22158;59.280;17.806;2023-03-25T21:38:56;3.53;;;1.70;;
35667;SDS011;22158;59.280;17.806;2023-03-25T21:41:23;1.45;;;1.10;;
35667;SDS011;22158;59.280;17.806;2023-03-25T21:43:49;3.03;;;1.27;;
35667;SDS011;22158;59.280;17.806;2023-03-25T21:46:16;2.50;;;1.80;;
35667;SDS011;22158;59.280;17.806;2023-03-25T21:48:42;3.45;;;1.75;;
35667;SDS011;22158;59.280;17.806;2023-03-25T21:51:09;3.15;;;1.70;;
35667;SDS011;22158;59.280;17.806;2023-03-25T21:53:38;5.43;;;3.15;;
35667;SDS011;22158;59.280;17.806;2023-03-25T21:56:08;5.72;;;1.88;;
35667;SDS011;22158;59.280;17.806;2023-03-25T21:58:35;4.53;;;1.80;;